Louisburg, Kansas
Current Conditions -  °F | °C
As of 8:53 PM on Monday 26 Jan 2015 (Local Time) from KOJC Reporting Station
Clear Clear  
Wind Chill: 47°   Ceiling: Unl
Heat Index: 49°   Visibility: 10mi
Dew Point: 32°   Wind: 5mph
Humidity: 52%   Direction: 330°NNW
Pressure: 30"   Gusts: NA
Location:  38.62°N, 94.68°W
Report Text: KOJC 270253Z 33004KT 10SM CLR 09/00 A3000 RMK AO2 SLP163 T00940000 51015
Loading
Personal Weather Stations






























Interactive Weather Map New forecast layout! Learn more

10-Day Weather Forecast

Advertisements
Track Severe Weather on mobile